sensor_id;sensor_type;location;lat;lon;timestamp;P1;durP1;ratioP1;P2;durP2;ratioP2
26375;SDS011;30544;42.196;24.336;2023-07-31T00:00:08;2.10;;;1.77;;
26375;SDS011;30544;42.196;24.336;2023-07-31T00:02:34;7.18;;;2.13;;
26375;SDS011;30544;42.196;24.336;2023-07-31T00:05:01;3.63;;;1.80;;
26375;SDS011;30544;42.196;24.336;2023-07-31T00:07:27;3.67;;;1.90;;
26375;SDS011;30544;42.196;24.336;2023-07-31T00:09:54;3.80;;;1.92;;
26375;SDS011;30544;42.196;24.336;2023-07-31T00:12:21;7.10;;;2.10;;
26375;SDS011;30544;42.196;24.336;2023-07-31T00:14:48;2.92;;;1.60;;
26375;SDS011;30544;42.196;24.336;2023-07-31T00:17:14;5.00;;;2.28;;
26375;SDS011;30544;42.196;24.336;2023-07-31T00:19:40;1.75;;;1.60;;
26375;SDS011;30544;42.196;24.336;2023-07-31T00:22:06;4.28;;;1.80;;
26375;SDS011;30544;42.196;24.336;2023-07-31T00:24:32;5.78;;;2.10;;
26375;SDS011;30544;42.196;24.336;2023-07-31T00:26:59;3.35;;;1.83;;
26375;SDS011;30544;42.196;24.336;2023-07-31T00:29:25;4.97;;;1.77;;
26375;SDS011;30544;42.196;24.336;2023-07-31T00:31:51;4.50;;;1.90;;
26375;SDS011;30544;42.196;24.336;2023-07-31T00:34:17;2.95;;;1.85;;
26375;SDS011;30544;42.196;24.336;2023-07-31T00:36:43;5.35;;;1.75;;
26375;SDS011;30544;42.196;24.336;2023-07-31T00:39:09;4.78;;;1.95;;
26375;SDS011;30544;42.196;24.336;2023-07-31T00:41:36;4.00;;;2.15;;
26375;SDS011;30544;42.196;24.336;2023-07-31T00:44:02;3.97;;;2.88;;
26375;SDS011;30544;42.196;24.336;2023-07-31T00:46:29;8.27;;;2.90;;
26375;SDS011;30544;42.196;24.336;2023-07-31T00:48:55;4.90;;;2.60;;
26375;SDS011;30544;42.196;24.336;2023-07-31T00:51:22;4.35;;;2.88;;
26375;SDS011;30544;42.196;24.336;2023-07-31T00:53:48;5.70;;;2.88;;
26375;SDS011;30544;42.196;24.336;2023-07-31T00:56:14;3.90;;;2.60;;
26375;SDS011;30544;42.196;24.336;2023-07-31T00:58:41;5.07;;;3.17;;
26375;SDS011;30544;42.196;24.336;2023-07-31T01:01:08;6.72;;;3.30;;
26375;SDS011;30544;42.196;24.336;2023-07-31T01:03:34;7.18;;;3.15;;
26375;SDS011;30544;42.196;24.336;2023-07-31T01:06:06;7.07;;;3.70;;
26375;SDS011;30544;42.196;24.336;2023-07-31T01:08:40;9.38;;;3.58;;
26375;SDS011;30544;42.196;24.336;2023-07-31T01:11:11;7.18;;;3.58;;
26375;SDS011;30544;42.196;24.336;2023-07-31T01:13:42;7.22;;;3.60;;
26375;SDS011;30544;42.196;24.336;2023-07-31T01:16:09;9.52;;;4.13;;
26375;SDS011;30544;42.196;24.336;2023-07-31T01:18:35;6.82;;;4.30;;
26375;SDS011;30544;42.196;24.336;2023-07-31T01:21:03;5.20;;;3.78;;
26375;SDS011;30544;42.196;24.336;2023-07-31T01:23:51;7.05;;;3.70;;
26375;SDS011;30544;42.196;24.336;2023-07-31T01:26:36;9.18;;;4.38;;
26375;SDS011;30544;42.196;24.336;2023-07-31T01:29:07;8.23;;;4.45;;
26375;SDS011;30544;42.196;24.336;2023-07-31T01:31:38;6.72;;;4.38;;
26375;SDS011;30544;42.196;24.336;2023-07-31T01:34:07;12.30;;;4.40;;
26375;SDS011;30544;42.196;24.336;2023-07-31T01:36:35;6.55;;;4.28;;
26375;SDS011;30544;42.196;24.336;2023-07-31T01:39:02;9.07;;;4.00;;
26375;SDS011;30544;42.196;24.336;2023-07-31T01:41:28;6.78;;;3.97;;
26375;SDS011;30544;42.196;24.336;2023-07-31T01:43:55;10.40;;;4.60;;
26375;SDS011;30544;42.196;24.336;2023-07-31T01:46:21;8.80;;;4.13;;
26375;SDS011;30544;42.196;24.336;2023-07-31T01:48:47;8.18;;;4.57;;
26375;SDS011;30544;42.196;24.336;2023-07-31T01:51:14;11.43;;;4.97;;
26375;SDS011;30544;42.196;24.336;2023-07-31T01:53:40;7.00;;;4.93;;
26375;SDS011;30544;42.196;24.336;2023-07-31T01:56:06;8.20;;;4.85;;
26375;SDS011;30544;42.196;24.336;2023-07-31T01:58:32;9.40;;;5.13;;
26375;SDS011;30544;42.196;24.336;2023-07-31T02:00:59;11.70;;;4.60;;
26375;SDS011;30544;42.196;24.336;2023-07-31T02:03:25;6.35;;;4.35;;
26375;SDS011;30544;42.196;24.336;2023-07-31T02:05:51;6.97;;;4.55;;
26375;SDS011;30544;42.196;24.336;2023-07-31T02:08:19;6.25;;;4.15;;
26375;SDS011;30544;42.196;24.336;2023-07-31T02:10:45;10.63;;;4.35;;
26375;SDS011;30544;42.196;24.336;2023-07-31T02:13:11;7.25;;;4.10;;
26375;SDS011;30544;42.196;24.336;2023-07-31T02:15:37;5.78;;;4.60;;
26375;SDS011;30544;42.196;24.336;2023-07-31T02:18:04;9.38;;;4.38;;
26375;SDS011;30544;42.196;24.336;2023-07-31T02:20:33;7.90;;;4.05;;
26375;SDS011;30544;42.196;24.336;2023-07-31T02:22:59;5.07;;;4.00;;
26375;SDS011;30544;42.196;24.336;2023-07-31T02:25:25;4.28;;;3.85;;
26375;SDS011;30544;42.196;24.336;2023-07-31T02:27:51;7.25;;;4.20;;
26375;SDS011;30544;42.196;24.336;2023-07-31T02:30:17;5.15;;;4.03;;
26375;SDS011;30544;42.196;24.336;2023-07-31T02:32:43;7.72;;;3.97;;
26375;SDS011;30544;42.196;24.336;2023-07-31T02:35:10;7.00;;;3.83;;
26375;SDS011;30544;42.196;24.336;2023-07-31T02:37:40;8.38;;;4.03;;
26375;SDS011;30544;42.196;24.336;2023-07-31T02:40:07;4.45;;;3.90;;
26375;SDS011;30544;42.196;24.336;2023-07-31T02:42:33;7.63;;;3.88;;
26375;SDS011;30544;42.196;24.336;2023-07-31T02:44:59;6.22;;;4.15;;
26375;SDS011;30544;42.196;24.336;2023-07-31T02:47:25;5.95;;;3.90;;
26375;SDS011;30544;42.196;24.336;2023-07-31T02:49:51;7.25;;;4.60;;
26375;SDS011;30544;42.196;24.336;2023-07-31T02:52:18;7.10;;;4.03;;
26375;SDS011;30544;42.196;24.336;2023-07-31T02:54:44;5.30;;;4.22;;
26375;SDS011;30544;42.196;24.336;2023-07-31T02:57:11;4.28;;;3.58;;
26375;SDS011;30544;42.196;24.336;2023-07-31T02:59:37;6.65;;;3.80;;
26375;SDS011;30544;42.196;24.336;2023-07-31T03:02:03;5.00;;;3.70;;
26375;SDS011;30544;42.196;24.336;2023-07-31T03:04:29;6.97;;;3.88;;
26375;SDS011;30544;42.196;24.336;2023-07-31T03:06:55;5.63;;;3.75;;
26375;SDS011;30544;42.196;24.336;2023-07-31T03:09:22;7.90;;;3.83;;
26375;SDS011;30544;42.196;24.336;2023-07-31T03:11:48;5.07;;;3.67;;
26375;SDS011;30544;42.196;24.336;2023-07-31T03:14:14;6.28;;;4.15;;
26375;SDS011;30544;42.196;24.336;2023-07-31T03:16:40;4.90;;;3.80;;
26375;SDS011;30544;42.196;24.336;2023-07-31T03:19:06;5.40;;;4.10;;
26375;SDS011;30544;42.196;24.336;2023-07-31T03:21:32;6.85;;;4.15;;
26375;SDS011;30544;42.196;24.336;2023-07-31T03:23:58;7.85;;;4.53;;
26375;SDS011;30544;42.196;24.336;2023-07-31T03:26:25;10.00;;;4.50;;
26375;SDS011;30544;42.196;24.336;2023-07-31T03:28:51;9.90;;;4.57;;
26375;SDS011;30544;42.196;24.336;2023-07-31T03:31:17;7.15;;;4.40;;
26375;SDS011;30544;42.196;24.336;2023-07-31T03:33:43;8.38;;;4.10;;
26375;SDS011;30544;42.196;24.336;2023-07-31T03:36:09;8.20;;;4.53;;
26375;SDS011;30544;42.196;24.336;2023-07-31T03:38:36;6.38;;;4.38;;
26375;SDS011;30544;42.196;24.336;2023-07-31T03:41:02;5.13;;;4.32;;
26375;SDS011;30544;42.196;24.336;2023-07-31T03:43:28;10.13;;;4.53;;
26375;SDS011;30544;42.196;24.336;2023-07-31T03:45:54;6.60;;;4.85;;
26375;SDS011;30544;42.196;24.336;2023-07-31T03:48:21;6.57;;;5.00;;
26375;SDS011;30544;42.196;24.336;2023-07-31T03:50:47;6.95;;;4.57;;
26375;SDS011;30544;42.196;24.336;2023-07-31T03:53:13;7.82;;;4.68;;
26375;SDS011;30544;42.196;24.336;2023-07-31T03:55:39;6.55;;;4.60;;
26375;SDS011;30544;42.196;24.336;2023-07-31T03:58:05;13.63;;;4.75;;
26375;SDS011;30544;42.196;24.336;2023-07-31T04:00:32;6.47;;;4.80;;
26375;SDS011;30544;42.196;24.336;2023-07-31T04:02:58;9.27;;;5.10;;
26375;SDS011;30544;42.196;24.336;2023-07-31T04:05:25;8.15;;;5.10;;
26375;SDS011;30544;42.196;24.336;2023-07-31T04:07:51;8.57;;;5.50;;
26375;SDS011;30544;42.196;24.336;2023-07-31T04:10:18;10.77;;;6.35;;
26375;SDS011;30544;42.196;24.336;2023-07-31T04:12:44;7.70;;;4.47;;
26375;SDS011;30544;42.196;24.336;2023-07-31T04:15:10;7.53;;;4.80;;
26375;SDS011;30544;42.196;24.336;2023-07-31T04:17:36;12.40;;;5.35;;
26375;SDS011;30544;42.196;24.336;2023-07-31T04:20:03;8.10;;;5.22;;
26375;SDS011;30544;42.196;24.336;2023-07-31T04:22:29;7.93;;;5.47;;
26375;SDS011;30544;42.196;24.336;2023-07-31T04:24:55;9.05;;;5.35;;
26375;SDS011;30544;42.196;24.336;2023-07-31T04:27:22;9.68;;;5.82;;
26375;SDS011;30544;42.196;24.336;2023-07-31T04:29:48;9.43;;;5.18;;
26375;SDS011;30544;42.196;24.336;2023-07-31T04:32:14;9.20;;;5.13;;
26375;SDS011;30544;42.196;24.336;2023-07-31T04:34:42;9.35;;;5.40;;
26375;SDS011;30544;42.196;24.336;2023-07-31T04:37:08;8.95;;;5.22;;
26375;SDS011;30544;42.196;24.336;2023-07-31T04:39:35;9.57;;;5.90;;
26375;SDS011;30544;42.196;24.336;2023-07-31T04:42:01;29.88;;;11.43;;
26375;SDS011;30544;42.196;24.336;2023-07-31T04:44:27;37.17;;;13.68;;
26375;SDS011;30544;42.196;24.336;2023-07-31T04:46:53;80.63;;;27.90;;
26375;SDS011;30544;42.196;24.336;2023-07-31T04:49:19;82.10;;;30.73;;
26375;SDS011;30544;42.196;24.336;2023-07-31T04:51:46;45.97;;;19.45;;
26375;SDS011;30544;42.196;24.336;2023-07-31T04:54:12;24.50;;;12.27;;
26375;SDS011;30544;42.196;24.336;2023-07-31T04:56:40;14.55;;;8.48;;
26375;SDS011;30544;42.196;24.336;2023-07-31T04:59:06;44.35;;;23.02;;
26375;SDS011;30544;42.196;24.336;2023-07-31T05:01:32;25.08;;;13.90;;
26375;SDS011;30544;42.196;24.336;2023-07-31T05:03:58;15.75;;;9.50;;
26375;SDS011;30544;42.196;24.336;2023-07-31T05:06:24;11.70;;;7.93;;
26375;SDS011;30544;42.196;24.336;2023-07-31T05:08:51;8.40;;;6.40;;
26375;SDS011;30544;42.196;24.336;2023-07-31T05:11:17;8.38;;;6.60;;
26375;SDS011;30544;42.196;24.336;2023-07-31T05:13:43;6.95;;;5.90;;
26375;SDS011;30544;42.196;24.336;2023-07-31T05:16:09;7.53;;;5.97;;
26375;SDS011;30544;42.196;24.336;2023-07-31T05:18:35;9.07;;;6.07;;
26375;SDS011;30544;42.196;24.336;2023-07-31T05:21:01;9.65;;;6.30;;
26375;SDS011;30544;42.196;24.336;2023-07-31T05:23:28;8.07;;;6.70;;
26375;SDS011;30544;42.196;24.336;2023-07-31T05:26:03;7.80;;;6.70;;
26375;SDS011;30544;42.196;24.336;2023-07-31T05:28:29;10.52;;;6.95;;
26375;SDS011;30544;42.196;24.336;2023-07-31T05:30:58;11.07;;;7.57;;
26375;SDS011;30544;42.196;24.336;2023-07-31T05:33:24;9.45;;;7.05;;
26375;SDS011;30544;42.196;24.336;2023-07-31T05:35:51;10.02;;;7.93;;
26375;SDS011;30544;42.196;24.336;2023-07-31T05:38:17;11.65;;;8.40;;
26375;SDS011;30544;42.196;24.336;2023-07-31T05:40:43;11.55;;;8.88;;
26375;SDS011;30544;42.196;24.336;2023-07-31T05:43:10;11.93;;;8.98;;
26375;SDS011;30544;42.196;24.336;2023-07-31T05:45:36;12.60;;;8.73;;
26375;SDS011;30544;42.196;24.336;2023-07-31T05:48:02;11.35;;;9.57;;
26375;SDS011;30544;42.196;24.336;2023-07-31T05:50:29;11.60;;;8.90;;
26375;SDS011;30544;42.196;24.336;2023-07-31T05:52:55;14.48;;;9.55;;
26375;SDS011;30544;42.196;24.336;2023-07-31T05:55:21;16.35;;;10.70;;
26375;SDS011;30544;42.196;24.336;2023-07-31T05:57:48;10.57;;;9.48;;
26375;SDS011;30544;42.196;24.336;2023-07-31T06:00:15;13.50;;;9.77;;
26375;SDS011;30544;42.196;24.336;2023-07-31T06:02:41;11.23;;;9.95;;
26375;SDS011;30544;42.196;24.336;2023-07-31T06:05:08;14.50;;;10.63;;
26375;SDS011;30544;42.196;24.336;2023-07-31T06:07:34;13.52;;;10.27;;
26375;SDS011;30544;42.196;24.336;2023-07-31T06:10:00;16.25;;;10.70;;
26375;SDS011;30544;42.196;24.336;2023-07-31T06:12:29;14.95;;;11.88;;
26375;SDS011;30544;42.196;24.336;2023-07-31T06:14:56;13.18;;;11.88;;
26375;SDS011;30544;42.196;24.336;2023-07-31T06:17:23;18.00;;;13.02;;
26375;SDS011;30544;42.196;24.336;2023-07-31T06:19:49;16.58;;;12.65;;
26375;SDS011;30544;42.196;24.336;2023-07-31T06:22:15;20.33;;;15.68;;
26375;SDS011;30544;42.196;24.336;2023-07-31T06:24:41;18.85;;;16.85;;
26375;SDS011;30544;42.196;24.336;2023-07-31T06:27:07;17.42;;;15.23;;
26375;SDS011;30544;42.196;24.336;2023-07-31T06:29:34;19.35;;;16.67;;
26375;SDS011;30544;42.196;24.336;2023-07-31T06:32:00;23.77;;;18.42;;
26375;SDS011;30544;42.196;24.336;2023-07-31T06:34:27;21.10;;;18.90;;
26375;SDS011;30544;42.196;24.336;2023-07-31T06:36:53;21.98;;;19.63;;
26375;SDS011;30544;42.196;24.336;2023-07-31T06:39:20;22.02;;;19.83;;
26375;SDS011;30544;42.196;24.336;2023-07-31T06:41:46;21.13;;;18.88;;
26375;SDS011;30544;42.196;24.336;2023-07-31T06:44:12;25.90;;;20.27;;
26375;SDS011;30544;42.196;24.336;2023-07-31T06:46:38;23.90;;;19.88;;
26375;SDS011;30544;42.196;24.336;2023-07-31T06:49:04;26.27;;;19.90;;
26375;SDS011;30544;42.196;24.336;2023-07-31T06:51:31;29.17;;;20.20;;
26375;SDS011;30544;42.196;24.336;2023-07-31T06:53:57;23.25;;;18.90;;
26375;SDS011;30544;42.196;24.336;2023-07-31T06:56:23;25.70;;;20.33;;
26375;SDS011;30544;42.196;24.336;2023-07-31T06:58:51;21.23;;;18.67;;
26375;SDS011;30544;42.196;24.336;2023-07-31T07:01:17;24.70;;;18.52;;
26375;SDS011;30544;42.196;24.336;2023-07-31T07:03:43;24.33;;;20.17;;
26375;SDS011;30544;42.196;24.336;2023-07-31T07:06:09;23.50;;;20.38;;
26375;SDS011;30544;42.196;24.336;2023-07-31T07:08:36;25.45;;;20.98;;
26375;SDS011;30544;42.196;24.336;2023-07-31T07:11:03;22.60;;;20.23;;
26375;SDS011;30544;42.196;24.336;2023-07-31T07:13:29;27.65;;;19.88;;
26375;SDS011;30544;42.196;24.336;2023-07-31T07:15:55;25.63;;;19.15;;
26375;SDS011;30544;42.196;24.336;2023-07-31T07:18:21;24.98;;;18.98;;
26375;SDS011;30544;42.196;24.336;2023-07-31T07:20:48;25.77;;;22.10;;
26375;SDS011;30544;42.196;24.336;2023-07-31T07:23:15;34.58;;;26.23;;
26375;SDS011;30544;42.196;24.336;2023-07-31T07:25:42;22.88;;;19.58;;
26375;SDS011;30544;42.196;24.336;2023-07-31T07:28:08;23.48;;;20.67;;
26375;SDS011;30544;42.196;24.336;2023-07-31T07:30:35;24.70;;;21.38;;
26375;SDS011;30544;42.196;24.336;2023-07-31T07:33:01;31.15;;;20.52;;
26375;SDS011;30544;42.196;24.336;2023-07-31T07:35:27;25.25;;;18.98;;
26375;SDS011;30544;42.196;24.336;2023-07-31T07:37:54;31.45;;;21.60;;
26375;SDS011;30544;42.196;24.336;2023-07-31T07:40:20;27.45;;;19.25;;
26375;SDS011;30544;42.196;24.336;2023-07-31T07:42:47;18.45;;;16.48;;
26375;SDS011;30544;42.196;24.336;2023-07-31T07:45:13;31.15;;;22.50;;
26375;SDS011;30544;42.196;24.336;2023-07-31T07:47:40;18.02;;;16.13;;
26375;SDS011;30544;42.196;24.336;2023-07-31T07:50:07;22.85;;;16.75;;
26375;SDS011;30544;42.196;24.336;2023-07-31T07:52:33;18.20;;;15.25;;
26375;SDS011;30544;42.196;24.336;2023-07-31T07:55:00;17.23;;;15.40;;
26375;SDS011;30544;42.196;24.336;2023-07-31T07:57:26;17.20;;;15.07;;
26375;SDS011;30544;42.196;24.336;2023-07-31T07:59:52;17.23;;;14.95;;
26375;SDS011;30544;42.196;24.336;2023-07-31T08:02:18;16.58;;;14.82;;
26375;SDS011;30544;42.196;24.336;2023-07-31T08:04:45;18.25;;;15.18;;
26375;SDS011;30544;42.196;24.336;2023-07-31T08:07:11;16.10;;;14.35;;
26375;SDS011;30544;42.196;24.336;2023-07-31T08:09:37;20.50;;;14.20;;
26375;SDS011;30544;42.196;24.336;2023-07-31T08:12:04;15.55;;;13.95;;
26375;SDS011;30544;42.196;24.336;2023-07-31T08:14:30;15.43;;;13.60;;
26375;SDS011;30544;42.196;24.336;2023-07-31T08:16:57;30.05;;;19.25;;
26375;SDS011;30544;42.196;24.336;2023-07-31T08:19:23;17.52;;;14.07;;
26375;SDS011;30544;42.196;24.336;2023-07-31T08:21:50;21.05;;;14.68;;
26375;SDS011;30544;42.196;24.336;2023-07-31T08:24:16;13.27;;;11.90;;
26375;SDS011;30544;42.196;24.336;2023-07-31T08:26:42;22.88;;;15.18;;
26375;SDS011;30544;42.196;24.336;2023-07-31T08:29:08;34.78;;;23.23;;
26375;SDS011;30544;42.196;24.336;2023-07-31T08:31:34;19.08;;;14.30;;
26375;SDS011;30544;42.196;24.336;2023-07-31T08:34:01;15.75;;;12.73;;
26375;SDS011;30544;42.196;24.336;2023-07-31T08:36:28;13.10;;;10.73;;
26375;SDS011;30544;42.196;24.336;2023-07-31T08:38:54;12.20;;;9.45;;
26375;SDS011;30544;42.196;24.336;2023-07-31T08:41:20;12.80;;;9.98;;
26375;SDS011;30544;42.196;24.336;2023-07-31T08:43:46;10.75;;;9.65;;
26375;SDS011;30544;42.196;24.336;2023-07-31T08:46:13;10.50;;;8.35;;
26375;SDS011;30544;42.196;24.336;2023-07-31T08:48:40;11.38;;;8.45;;
26375;SDS011;30544;42.196;24.336;2023-07-31T08:51:08;10.60;;;8.60;;
26375;SDS011;30544;42.196;24.336;2023-07-31T08:53:34;12.15;;;9.50;;
26375;SDS011;30544;42.196;24.336;2023-07-31T08:56:00;10.88;;;8.73;;
26375;SDS011;30544;42.196;24.336;2023-07-31T08:58:27;11.43;;;8.82;;
26375;SDS011;30544;42.196;24.336;2023-07-31T09:00:57;10.65;;;8.75;;
26375;SDS011;30544;42.196;24.336;2023-07-31T09:03:24;10.77;;;8.18;;
26375;SDS011;30544;42.196;24.336;2023-07-31T09:05:51;11.02;;;7.15;;
26375;SDS011;30544;42.196;24.336;2023-07-31T09:08:19;13.02;;;7.45;;
26375;SDS011;30544;42.196;24.336;2023-07-31T09:10:46;10.10;;;6.68;;
26375;SDS011;30544;42.196;24.336;2023-07-31T09:13:15;8.23;;;6.75;;
26375;SDS011;30544;42.196;24.336;2023-07-31T09:15:42;9.63;;;6.75;;
26375;SDS011;30544;42.196;24.336;2023-07-31T09:18:09;9.00;;;6.47;;
26375;SDS011;30544;42.196;24.336;2023-07-31T09:20:36;7.57;;;6.88;;
26375;SDS011;30544;42.196;24.336;2023-07-31T09:23:06;7.55;;;6.75;;
26375;SDS011;30544;42.196;24.336;2023-07-31T09:25:34;8.25;;;7.18;;
26375;SDS011;30544;42.196;24.336;2023-07-31T09:28:01;12.23;;;8.52;;
26375;SDS011;30544;42.196;24.336;2023-07-31T09:30:29;14.85;;;10.07;;
26375;SDS011;30544;42.196;24.336;2023-07-31T09:33:00;13.55;;;8.75;;
26375;SDS011;30544;42.196;24.336;2023-07-31T09:35:28;16.25;;;9.95;;
26375;SDS011;30544;42.196;24.336;2023-07-31T09:37:57;7.30;;;6.50;;
26375;SDS011;30544;42.196;24.336;2023-07-31T09:40:27;9.10;;;6.20;;
26375;SDS011;30544;42.196;24.336;2023-07-31T09:42:59;12.40;;;7.90;;
26375;SDS011;30544;42.196;24.336;2023-07-31T09:45:26;10.80;;;7.47;;
26375;SDS011;30544;42.196;24.336;2023-07-31T09:47:53;79.03;;;35.38;;
26375;SDS011;30544;42.196;24.336;2023-07-31T09:50:20;29.90;;;14.88;;
26375;SDS011;30544;42.196;24.336;2023-07-31T09:52:47;23.90;;;11.27;;
26375;SDS011;30544;42.196;24.336;2023-07-31T09:55:13;11.50;;;8.18;;
26375;SDS011;30544;42.196;24.336;2023-07-31T09:57:40;11.38;;;7.93;;
26375;SDS011;30544;42.196;24.336;2023-07-31T10:00:09;24.58;;;14.30;;
26375;SDS011;30544;42.196;24.336;2023-07-31T10:02:36;32.67;;;17.58;;
26375;SDS011;30544;42.196;24.336;2023-07-31T10:05:03;23.70;;;13.05;;
26375;SDS011;30544;42.196;24.336;2023-07-31T10:07:30;6.55;;;5.72;;
26375;SDS011;30544;42.196;24.336;2023-07-31T10:09:59;13.38;;;7.18;;
26375;SDS011;30544;42.196;24.336;2023-07-31T10:12:26;7.75;;;5.30;;
26375;SDS011;30544;42.196;24.336;2023-07-31T10:14:53;8.70;;;5.22;;
26375;SDS011;30544;42.196;24.336;2023-07-31T10:17:21;6.55;;;4.65;;
26375;SDS011;30544;42.196;24.336;2023-07-31T10:19:47;5.82;;;4.40;;
26375;SDS011;30544;42.196;24.336;2023-07-31T10:22:14;8.75;;;4.63;;
26375;SDS011;30544;42.196;24.336;2023-07-31T10:24:41;5.53;;;4.38;;
26375;SDS011;30544;42.196;24.336;2023-07-31T10:27:08;4.60;;;4.20;;
26375;SDS011;30544;42.196;24.336;2023-07-31T10:29:35;6.68;;;4.80;;
26375;SDS011;30544;42.196;24.336;2023-07-31T10:32:02;7.60;;;4.60;;
26375;SDS011;30544;42.196;24.336;2023-07-31T10:34:32;5.65;;;4.40;;
26375;SDS011;30544;42.196;24.336;2023-07-31T10:39:55;5.78;;;3.67;;
26375;SDS011;30544;42.196;24.336;2023-07-31T10:42:27;5.43;;;3.55;;
26375;SDS011;30544;42.196;24.336;2023-07-31T10:44:55;4.50;;;3.47;;
26375;SDS011;30544;42.196;24.336;2023-07-31T10:47:23;4.53;;;3.38;;
26375;SDS011;30544;42.196;24.336;2023-07-31T10:49:50;3.78;;;3.08;;
26375;SDS011;30544;42.196;24.336;2023-07-31T10:52:19;6.72;;;3.70;;
26375;SDS011;30544;42.196;24.336;2023-07-31T10:54:48;5.05;;;4.00;;
26375;SDS011;30544;42.196;24.336;2023-07-31T10:57:23;7.55;;;3.83;;
26375;SDS011;30544;42.196;24.336;2023-07-31T10:59:50;7.05;;;4.55;;
26375;SDS011;30544;42.196;24.336;2023-07-31T11:05:07;8.50;;;5.97;;
26375;SDS011;30544;42.196;24.336;2023-07-31T11:07:46;5.63;;;4.43;;
26375;SDS011;30544;42.196;24.336;2023-07-31T11:10:15;22.77;;;8.63;;
26375;SDS011;30544;42.196;24.336;2023-07-31T11:12:42;10.27;;;6.78;;
26375;SDS011;30544;42.196;24.336;2023-07-31T11:15:08;3.58;;;3.28;;
26375;SDS011;30544;42.196;24.336;2023-07-31T11:17:38;5.20;;;3.58;;
26375;SDS011;30544;42.196;24.336;2023-07-31T11:20:04;6.20;;;3.65;;
26375;SDS011;30544;42.196;24.336;2023-07-31T11:22:33;5.55;;;3.55;;
26375;SDS011;30544;42.196;24.336;2023-07-31T11:25:00;3.47;;;3.15;;
26375;SDS011;30544;42.196;24.336;2023-07-31T11:27:27;5.28;;;3.15;;
26375;SDS011;30544;42.196;24.336;2023-07-31T11:29:53;5.50;;;3.08;;
26375;SDS011;30544;42.196;24.336;2023-07-31T11:32:26;4.15;;;3.50;;
26375;SDS011;30544;42.196;24.336;2023-07-31T11:34:52;5.80;;;3.60;;
26375;SDS011;30544;42.196;24.336;2023-07-31T11:37:18;6.65;;;3.55;;
26375;SDS011;30544;42.196;24.336;2023-07-31T11:39:58;8.18;;;3.00;;
26375;SDS011;30544;42.196;24.336;2023-07-31T11:42:24;3.42;;;3.10;;
26375;SDS011;30544;42.196;24.336;2023-07-31T11:44:51;5.22;;;3.20;;
26375;SDS011;30544;42.196;24.336;2023-07-31T11:47:17;3.30;;;2.72;;
26375;SDS011;30544;42.196;24.336;2023-07-31T11:49:43;5.47;;;3.30;;
26375;SDS011;30544;42.196;24.336;2023-07-31T11:52:09;6.97;;;3.58;;
26375;SDS011;30544;42.196;24.336;2023-07-31T11:54:37;7.10;;;3.33;;
26375;SDS011;30544;42.196;24.336;2023-07-31T11:57:04;4.18;;;3.42;;
26375;SDS011;30544;42.196;24.336;2023-07-31T11:59:31;13.95;;;8.30;;
26375;SDS011;30544;42.196;24.336;2023-07-31T12:01:57;12.43;;;6.75;;
26375;SDS011;30544;42.196;24.336;2023-07-31T12:04:24;3.25;;;2.95;;
26375;SDS011;30544;42.196;24.336;2023-07-31T12:06:52;31.58;;;13.15;;
26375;SDS011;30544;42.196;24.336;2023-07-31T12:09:18;8.45;;;4.72;;
26375;SDS011;30544;42.196;24.336;2023-07-31T12:11:45;5.35;;;3.17;;
26375;SDS011;30544;42.196;24.336;2023-07-31T12:14:20;6.25;;;3.17;;
26375;SDS011;30544;42.196;24.336;2023-07-31T12:16:47;8.15;;;2.63;;
26375;SDS011;30544;42.196;24.336;2023-07-31T12:19:13;3.00;;;2.67;;
26375;SDS011;30544;42.196;24.336;2023-07-31T12:21:39;4.57;;;2.50;;
26375;SDS011;30544;42.196;24.336;2023-07-31T12:24:05;5.50;;;2.38;;
26375;SDS011;30544;42.196;24.336;2023-07-31T12:26:33;8.52;;;2.33;;
26375;SDS011;30544;42.196;24.336;2023-07-31T12:29:00;4.25;;;2.88;;
26375;SDS011;30544;42.196;24.336;2023-07-31T12:31:27;4.97;;;2.80;;
26375;SDS011;30544;42.196;24.336;2023-07-31T12:33:54;6.35;;;2.75;;
26375;SDS011;30544;42.196;24.336;2023-07-31T12:36:22;3.20;;;2.60;;
26375;SDS011;30544;42.196;24.336;2023-07-31T12:38:49;3.08;;;2.70;;
26375;SDS011;30544;42.196;24.336;2023-07-31T12:41:16;3.47;;;2.58;;
26375;SDS011;30544;42.196;24.336;2023-07-31T12:43:43;10.88;;;2.80;;
26375;SDS011;30544;42.196;24.336;2023-07-31T12:46:10;4.03;;;2.03;;
26375;SDS011;30544;42.196;24.336;2023-07-31T12:48:38;4.13;;;2.38;;
26375;SDS011;30544;42.196;24.336;2023-07-31T12:51:05;3.22;;;2.30;;
26375;SDS011;30544;42.196;24.336;2023-07-31T12:53:32;3.55;;;2.35;;
26375;SDS011;30544;42.196;24.336;2023-07-31T12:55:58;3.92;;;2.05;;
26375;SDS011;30544;42.196;24.336;2023-07-31T12:58:24;4.20;;;2.10;;
26375;SDS011;30544;42.196;24.336;2023-07-31T13:00:51;5.40;;;2.17;;
26375;SDS011;30544;42.196;24.336;2023-07-31T13:03:17;3.40;;;2.47;;
26375;SDS011;30544;42.196;24.336;2023-07-31T13:05:44;4.47;;;1.88;;
26375;SDS011;30544;42.196;24.336;2023-07-31T13:08:10;3.47;;;2.22;;
26375;SDS011;30544;42.196;24.336;2023-07-31T13:10:37;2.67;;;1.95;;
26375;SDS011;30544;42.196;24.336;2023-07-31T13:13:03;3.47;;;1.50;;
26375;SDS011;30544;42.196;24.336;2023-07-31T13:15:29;1.98;;;1.70;;
26375;SDS011;30544;42.196;24.336;2023-07-31T13:17:55;3.05;;;1.88;;
26375;SDS011;30544;42.196;24.336;2023-07-31T13:20:21;5.03;;;1.85;;
26375;SDS011;30544;42.196;24.336;2023-07-31T13:22:48;4.35;;;1.55;;
26375;SDS011;30544;42.196;24.336;2023-07-31T13:25:14;10.80;;;1.50;;
26375;SDS011;30544;42.196;24.336;2023-07-31T13:27:40;6.88;;;1.80;;
26375;SDS011;30544;42.196;24.336;2023-07-31T13:30:07;5.20;;;1.50;;
26375;SDS011;30544;42.196;24.336;2023-07-31T13:32:33;3.42;;;1.55;;
26375;SDS011;30544;42.196;24.336;2023-07-31T13:35:03;2.80;;;1.40;;
26375;SDS011;30544;42.196;24.336;2023-07-31T13:37:30;1.45;;;1.33;;
26375;SDS011;30544;42.196;24.336;2023-07-31T13:39:57;1.52;;;1.33;;
26375;SDS011;30544;42.196;24.336;2023-07-31T13:42:23;1.58;;;1.40;;
26375;SDS011;30544;42.196;24.336;2023-07-31T13:44:49;1.75;;;1.55;;
26375;SDS011;30544;42.196;24.336;2023-07-31T13:47:15;2.53;;;1.27;;
26375;SDS011;30544;42.196;24.336;2023-07-31T13:49:41;1.30;;;1.20;;
26375;SDS011;30544;42.196;24.336;2023-07-31T13:52:08;2.85;;;1.10;;
26375;SDS011;30544;42.196;24.336;2023-07-31T13:54:34;2.70;;;1.48;;
26375;SDS011;30544;42.196;24.336;2023-07-31T13:57:01;5.55;;;1.50;;
26375;SDS011;30544;42.196;24.336;2023-07-31T13:59:28;1.90;;;1.60;;
26375;SDS011;30544;42.196;24.336;2023-07-31T14:01:54;1.88;;;1.38;;
26375;SDS011;30544;42.196;24.336;2023-07-31T14:04:20;2.80;;;1.30;;
26375;SDS011;30544;42.196;24.336;2023-07-31T14:06:46;2.05;;;1.40;;
26375;SDS011;30544;42.196;24.336;2023-07-31T14:09:15;3.83;;;1.55;;
26375;SDS011;30544;42.196;24.336;2023-07-31T14:11:42;2.90;;;1.50;;
26375;SDS011;30544;42.196;24.336;2023-07-31T14:14:09;3.05;;;1.40;;
26375;SDS011;30544;42.196;24.336;2023-07-31T14:16:35;5.82;;;1.50;;
26375;SDS011;30544;42.196;24.336;2023-07-31T14:19:02;3.15;;;1.58;;
26375;SDS011;30544;42.196;24.336;2023-07-31T14:21:28;2.28;;;1.55;;
26375;SDS011;30544;42.196;24.336;2023-07-31T14:23:54;3.95;;;1.70;;
26375;SDS011;30544;42.196;24.336;2023-07-31T14:26:20;1.98;;;1.58;;
26375;SDS011;30544;42.196;24.336;2023-07-31T14:28:46;2.00;;;1.23;;